Time;durP1;ratioP1;P1;durP2;ratioP2;P2;SDS_P1;SDS_P2;PMS_P1;PMS_P2;Temp;Humidity;BMP_temperature;BMP_pressure;BME280_temperature;BME280_humidity;BME280_pressure;Samples;Min_cycle;Max_cycle;Signal;HPM_P1;HPM_P2
2021/03/19 00:01:33;;;;;;;23.08;11.75;;;8.70;99.90;;;;;;4997357;28;20047;-89
2021/03/19 00:04:00;;;;;;;29.27;11.52;;;8.70;99.90;;;;;;4997175;28;20054;-89
2021/03/19 00:06:26;;;;;;;28.20;11.82;;;8.60;99.90;;;;;;4997247;28;20422;-90
2021/03/19 00:08:53;;;;;;;20.58;9.75;;;8.70;99.90;;;;;;4997601;28;20047;-90
2021/03/19 00:11:20;;;;;;;22.38;8.40;;;8.70;99.90;;;;;;4997141;28;20046;-90
2021/03/19 00:13:47;;;;;;;17.77;8.98;;;8.70;99.90;;;;;;4997270;28;20054;-89
2021/03/19 00:16:13;;;;;;;16.52;7.63;;;8.80;99.90;;;;;;4997082;28;20042;-89
2021/03/19 00:18:40;;;;;;;14.48;4.18;;;8.80;99.90;;;;;;4997079;28;20076;-89
2021/03/19 00:21:06;;;;;;;6.38;3.45;;;8.90;99.90;;;;;;5016439;28;20049;-90
2021/03/19 00:23:33;;;;;;;5.25;2.58;;;9.00;99.90;;;;;;5016539;28;20458;-90
2021/03/19 00:26:00;;;;;;;5.20;3.25;;;9.10;99.90;;;;;;5016730;28;20444;-90
2021/03/19 00:28:27;;;;;;;8.70;2.88;;;9.20;99.90;;;;;;5016741;28;20060;-89
2021/03/19 00:30:54;;;;;;;5.00;2.47;;;9.30;99.90;;;;;;5016574;28;20386;-89
2021/03/19 00:33:21;;;;;;;5.78;2.38;;;9.30;99.90;;;;;;5016547;28;20060;-89
2021/03/19 00:35:47;;;;;;;3.55;2.30;;;9.40;99.90;;;;;;5016616;28;20052;-89
2021/03/19 00:38:14;;;;;;;4.55;2.42;;;9.40;99.90;;;;;;5016455;28;20064;-90
2021/03/19 00:40:41;;;;;;;4.55;2.30;;;9.50;99.90;;;;;;5016377;28;20045;-90
2021/03/19 00:43:08;;;;;;;6.47;2.15;;;9.50;99.90;;;;;;5016142;28;20058;-90
2021/03/19 00:45:36;;;;;;;9.32;3.58;;;9.50;99.90;;;;;;5016037;28;20053;-89
2021/03/19 00:48:04;;;;;;;6.88;2.70;;;9.50;99.90;;;;;;5016351;28;20387;-92
2021/03/19 00:50:32;;;;;;;5.32;2.80;;;9.50;99.90;;;;;;5015541;28;20060;-90
2021/03/19 00:52:59;;;;;;;5.68;2.83;;;9.50;99.90;;;;;;5015772;28;20107;-89
2021/03/19 00:55:25;;;;;;;4.28;2.78;;;9.50;99.90;;;;;;5015715;28;20053;-88
2021/03/19 00:57:52;;;;;;;4.93;2.88;;;9.40;99.90;;;;;;5015558;28;20395;-88
2021/03/19 01:00:19;;;;;;;6.57;3.30;;;9.40;99.90;;;;;;5015872;28;20088;-87
2021/03/19 01:02:47;;;;;;;4.85;2.92;;;9.40;99.90;;;;;;5015954;28;20053;-89
2021/03/19 01:05:15;;;;;;;6.65;3.25;;;9.40;99.90;;;;;;5015102;28;20054;-89
2021/03/19 01:07:42;;;;;;;4.05;2.60;;;9.40;99.90;;;;;;5015641;28;20057;-88
2021/03/19 01:10:09;;;;;;;5.57;2.47;;;9.40;99.90;;;;;;5015584;28;20119;-89
2021/03/19 01:12:36;;;;;;;6.07;2.88;;;9.40;99.90;;;;;;5015356;28;20046;-88
2021/03/19 01:15:03;;;;;;;6.85;2.72;;;9.40;99.90;;;;;;5015342;28;20046;-90
2021/03/19 01:17:29;;;;;;;3.33;2.33;;;9.40;99.90;;;;;;5015442;28;20060;-88
2021/03/19 01:19:57;;;;;;;8.20;2.88;;;9.40;99.90;;;;;;5015142;28;20060;-89
2021/03/19 01:22:23;;;;;;;5.05;3.13;;;9.40;99.90;;;;;;5015371;28;20069;-89
2021/03/19 01:24:50;;;;;;;9.35;3.63;;;9.30;99.90;;;;;;5015389;28;20056;-89
2021/03/19 01:27:16;;;;;;;6.35;2.97;;;9.30;99.90;;;;;;5015108;28;20049;-89
2021/03/19 01:29:43;;;;;;;6.93;3.10;;;9.30;99.90;;;;;;5015300;28;20060;-89
2021/03/19 01:32:10;;;;;;;4.60;3.22;;;9.30;99.90;;;;;;5015358;28;20064;-89
2021/03/19 01:34:36;;;;;;;5.65;2.40;;;9.30;99.90;;;;;;5015084;28;20045;-89
2021/03/19 01:37:04;;;;;;;5.32;2.70;;;9.30;99.90;;;;;;5014966;28;20381;-88
2021/03/19 01:39:31;;;;;;;4.45;1.92;;;9.20;99.90;;;;;;5015284;28;20129;-88
2021/03/19 01:41:58;;;;;;;5.68;2.08;;;9.20;99.90;;;;;;5015135;28;20475;-89
2021/03/19 01:44:25;;;;;;;3.65;1.52;;;9.20;99.90;;;;;;5014904;28;20046;-89
2021/03/19 01:47:28;;;;;;;4.97;1.98;;;9.20;99.90;;;;;;5014979;28;20057;-88
2021/03/19 01:50:32;;;;;;;3.15;1.17;;;9.20;99.90;;;;;;5014628;28;20057;-89
2021/03/19 01:53:36;;;;;;;3.20;1.25;;;9.20;99.90;;;;;;4993473;28;20054;-89
2021/03/19 01:56:39;;;;;;;5.10;1.20;;;9.20;99.90;;;;;;5014806;28;20054;-89
2021/03/19 01:59:43;;;;;;;3.80;1.13;;;9.10;99.90;;;;;;4975750;28;20059;-89
2021/03/19 02:02:47;;;;;;;5.75;1.60;;;9.10;99.90;;;;;;4976049;28;20051;-90
2021/03/19 02:05:51;;;;;;;1.50;1.00;;;9.10;99.90;;;;;;4975481;28;20061;-89
2021/03/19 02:08:54;;;;;;;6.25;1.65;;;9.10;99.90;;;;;;4975971;28;20046;-88
2021/03/19 02:11:58;;;;;;;1.48;0.93;;;9.10;99.90;;;;;;4976079;28;20177;-88
2021/03/19 02:15:02;;;;;;;3.92;1.40;;;9.10;99.90;;;;;;4975849;28;20047;-89
2021/03/19 02:18:06;;;;;;;1.63;0.90;;;9.00;99.90;;;;;;4978254;28;20065;-88
2021/03/19 02:21:09;;;;;;;1.55;0.63;;;9.10;99.90;;;;;;4994549;28;20060;-89
2021/03/19 02:24:13;;;;;;;1.30;1.00;;;9.00;99.90;;;;;;4999196;28;20078;-88
2021/03/19 02:27:17;;;;;;;4.10;1.10;;;9.00;99.90;;;;;;4999005;28;20058;-88
2021/03/19 02:30:21;;;;;;;2.13;1.50;;;9.00;99.90;;;;;;4998847;28;20062;-89
2021/03/19 02:32:48;;;;;;;1.10;0.90;;;9.00;99.90;;;;;;4998810;28;20057;-89
2021/03/19 02:35:16;;;;;;;1.52;0.95;;;9.00;99.90;;;;;;4998593;28;20501;-88
2021/03/19 02:37:43;;;;;;;1.80;1.00;;;9.00;99.90;;;;;;4998096;28;20058;-89
2021/03/19 02:40:11;;;;;;;1.73;1.15;;;9.00;99.90;;;;;;4998615;28;20058;-88
2021/03/19 02:42:38;;;;;;;1.85;1.30;;;8.90;99.90;;;;;;4998464;28;20061;-89
2021/03/19 02:45:06;;;;;;;2.45;1.17;;;9.00;99.90;;;;;;4998537;28;20214;-89
2021/03/19 02:47:33;;;;;;;2.95;1.17;;;8.90;99.90;;;;;;4998481;28;20050;-88
2021/03/19 02:50:00;;;;;;;2.28;0.70;;;9.00;99.90;;;;;;4998320;28;20111;-89
2021/03/19 02:52:31;;;;;;;2.95;1.63;;;9.00;99.90;;;;;;4998339;28;20046;-89
2021/03/19 02:54:57;;;;;;;3.58;1.23;;;9.00;99.90;;;;;;4998274;28;20046;-89
2021/03/19 02:57:24;;;;;;;5.28;1.20;;;8.90;99.90;;;;;;4998457;28;20058;-89
2021/03/19 02:59:50;;;;;;;3.20;1.10;;;9.00;99.90;;;;;;4998528;28;20057;-88
2021/03/19 03:02:17;;;;;;;1.80;0.85;;;8.90;99.90;;;;;;4998435;28;20383;-88
2021/03/19 03:04:44;;;;;;;3.10;1.00;;;8.90;99.90;;;;;;4998340;28;20116;-88
2021/03/19 03:07:20;;;;;;;2.25;1.25;;;8.90;99.90;;;;;;4997989;28;20050;-88
2021/03/19 03:09:47;;;;;;;3.05;1.30;;;8.90;99.90;;;;;;4998163;28;20054;-88
2021/03/19 03:12:14;;;;;;;1.30;0.80;;;8.90;99.90;;;;;;4998212;28;20104;-88
2021/03/19 03:14:40;;;;;;;2.45;1.08;;;8.90;99.90;;;;;;4998142;28;20054;-88
2021/03/19 03:17:07;;;;;;;1.85;1.00;;;8.90;99.90;;;;;;4998332;28;20046;-89
2021/03/19 03:19:34;;;;;;;3.50;1.45;;;8.90;99.90;;;;;;4997753;28;20046;-88
2021/03/19 03:22:00;;;;;;;5.15;1.23;;;8.90;99.90;;;;;;4998056;28;20043;-89
2021/03/19 03:24:28;;;;;;;1.65;1.10;;;8.90;99.90;;;;;;4998101;28;20529;-90
2021/03/19 03:26:54;;;;;;;3.45;1.40;;;8.80;99.90;;;;;;4997789;28;20058;-89
2021/03/19 03:29:21;;;;;;;2.55;1.35;;;8.80;99.90;;;;;;4997903;28;20057;-88
2021/03/19 03:31:48;;;;;;;4.93;1.17;;;8.80;99.90;;;;;;4997830;28;20057;-88
2021/03/19 03:34:14;;;;;;;2.38;1.17;;;8.70;99.90;;;;;;4998132;28;20072;-89
2021/03/19 03:36:41;;;;;;;2.28;1.50;;;8.70;99.90;;;;;;4997919;28;20104;-88
2021/03/19 03:39:11;;;;;;;2.45;1.02;;;8.70;99.90;;;;;;4997525;28;20196;-87
2021/03/19 03:41:38;;;;;;;1.98;1.15;;;8.60;99.90;;;;;;4997768;28;20058;-88
2021/03/19 03:44:05;;;;;;;4.22;1.30;;;8.60;99.90;;;;;;4997632;28;20054;-88
2021/03/19 03:46:32;;;;;;;4.10;1.50;;;8.60;99.90;;;;;;4997556;28;20053;-89
2021/03/19 03:48:59;;;;;;;2.25;0.93;;;8.60;99.90;;;;;;4997633;28;20073;-87
2021/03/19 03:51:27;;;;;;;3.25;1.20;;;8.60;99.90;;;;;;4997684;28;20058;-88
2021/03/19 03:53:53;;;;;;;3.40;0.90;;;8.50;99.90;;;;;;4997684;28;20046;-88
2021/03/19 03:56:20;;;;;;;3.85;1.20;;;8.50;99.90;;;;;;4997324;28;20055;-88
2021/03/19 03:58:47;;;;;;;2.10;1.00;;;8.50;99.90;;;;;;4997508;28;20080;-88
2021/03/19 04:01:14;;;;;;;1.42;1.02;;;8.50;99.90;;;;;;4997106;28;20058;-88
2021/03/19 04:03:40;;;;;;;3.60;1.52;;;8.50;99.90;;;;;;4997187;28;20050;-88
2021/03/19 04:06:07;;;;;;;2.40;1.27;;;8.50;99.90;;;;;;4997002;28;20046;-88
2021/03/19 04:08:34;;;;;;;2.80;1.42;;;8.50;99.90;;;;;;4997029;28;20058;-88
2021/03/19 04:11:02;;;;;;;4.05;0.90;;;8.40;99.90;;;;;;4997094;28;20453;-88
2021/03/19 04:13:29;;;;;;;2.50;1.25;;;8.50;99.90;;;;;;4997006;28;20064;-87
2021/03/19 04:15:57;;;;;;;1.98;1.00;;;8.50;99.90;;;;;;4997016;28;20056;-89
2021/03/19 04:18:24;;;;;;;2.15;1.00;;;8.50;99.90;;;;;;4997283;28;20399;-88
2021/03/19 04:20:52;;;;;;;2.85;1.10;;;8.50;99.90;;;;;;5014479;28;20062;-89
2021/03/19 04:23:18;;;;;;;1.92;0.95;;;8.50;99.90;;;;;;5016184;28;20470;-88
2021/03/19 04:25:45;;;;;;;1.77;0.88;;;8.50;99.90;;;;;;5016161;28;20049;-88
2021/03/19 04:28:14;;;;;;;1.10;0.73;;;8.50;99.90;;;;;;5016501;28;20069;-88
2021/03/19 04:30:41;;;;;;;3.10;0.85;;;8.50;99.90;;;;;;5016137;28;20050;-88
2021/03/19 04:33:09;;;;;;;2.90;0.80;;;8.50;99.90;;;;;;5016081;28;20516;-89
2021/03/19 04:35:36;;;;;;;1.70;0.77;;;8.50;99.90;;;;;;5016138;28;20049;-88
2021/03/19 04:38:04;;;;;;;5.78;1.70;;;8.50;99.90;;;;;;5016080;28;20096;-88
2021/03/19 04:40:31;;;;;;;2.53;1.00;;;8.50;99.90;;;;;;5015438;28;20046;-89
2021/03/19 04:42:58;;;;;;;1.63;0.70;;;8.50;99.90;;;;;;5015902;28;20478;-88
2021/03/19 04:45:25;;;;;;;1.30;0.70;;;8.50;99.90;;;;;;5016322;28;20049;-88
2021/03/19 04:47:53;;;;;;;4.38;1.10;;;8.50;99.90;;;;;;5016336;28;20113;-87
2021/03/19 04:50:21;;;;;;;2.05;0.90;;;8.60;99.90;;;;;;5015942;28;20398;-88
2021/03/19 04:52:48;;;;;;;2.95;0.70;;;8.60;99.90;;;;;;5015809;28;20084;-87
2021/03/19 04:55:15;;;;;;;1.85;0.77;;;8.50;99.90;;;;;;5015767;28;20413;-89
2021/03/19 04:57:41;;;;;;;3.58;1.15;;;8.60;99.90;;;;;;5016075;28;20050;-87
2021/03/19 05:00:09;;;;;;;2.72;0.73;;;8.60;99.90;;;;;;5015781;28;20164;-87
2021/03/19 05:02:37;;;;;;;1.75;1.10;;;8.50;99.90;;;;;;5015745;28;20119;-88
2021/03/19 05:05:04;;;;;;;1.40;0.73;;;8.50;99.90;;;;;;5015470;28;20060;-88
2021/03/19 05:07:32;;;;;;;4.32;1.40;;;8.50;99.90;;;;;;4998907;28;20054;-87
2021/03/19 05:09:58;;;;;;;1.73;1.10;;;8.50;99.90;;;;;;4996282;28;20046;-89
2021/03/19 05:12:25;;;;;;;3.17;1.45;;;8.50;99.90;;;;;;4996191;28;20050;-88
2021/03/19 05:14:51;;;;;;;1.33;0.80;;;8.50;99.90;;;;;;4996077;28;20533;-88
2021/03/19 05:17:18;;;;;;;3.10;1.00;;;8.50;99.90;;;;;;4996325;28;20054;-87
2021/03/19 05:19:44;;;;;;;1.75;0.80;;;8.50;99.90;;;;;;5004533;28;20050;-88
2021/03/19 05:22:11;;;;;;;3.38;1.00;;;8.50;99.90;;;;;;5015970;28;20426;-88
2021/03/19 05:24:38;;;;;;;1.58;0.80;;;8.50;99.90;;;;;;5015321;28;20050;-89
2021/03/19 05:27:05;;;;;;;2.42;1.10;;;8.50;99.90;;;;;;5015406;28;20050;-88
2021/03/19 05:29:32;;;;;;;1.80;0.68;;;8.50;99.90;;;;;;5015693;28;20057;-88
2021/03/19 05:31:58;;;;;;;2.40;1.00;;;8.50;99.90;;;;;;5015655;28;20385;-88
2021/03/19 05:34:25;;;;;;;1.83;0.70;;;8.50;99.90;;;;;;5015265;28;20133;-88
2021/03/19 05:36:52;;;;;;;1.48;0.60;;;8.50;99.90;;;;;;5015175;28;20473;-88
2021/03/19 05:39:18;;;;;;;1.33;0.82;;;8.50;99.90;;;;;;5015249;28;20054;-88
2021/03/19 05:41:46;;;;;;;3.13;0.90;;;8.50;99.90;;;;;;5015356;28;20141;-88
2021/03/19 05:44:14;;;;;;;1.33;0.50;;;8.50;99.90;;;;;;5015146;28;20064;-88
2021/03/19 05:46:41;;;;;;;1.08;0.57;;;8.40;99.90;;;;;;5015563;28;20057;-88
2021/03/19 05:49:14;;;;;;;1.50;0.70;;;8.40;99.90;;;;;;5015299;28;20045;-88
2021/03/19 05:51:41;;;;;;;2.58;0.73;;;8.40;99.90;;;;;;5014290;28;20064;-88
2021/03/19 05:54:21;;;;;;;1.33;0.60;;;8.40;99.90;;;;;;5015422;28;20046;-89
2021/03/19 05:56:49;;;;;;;0.88;0.70;;;8.40;99.90;;;;;;5015281;28;20508;-87
2021/03/19 05:59:16;;;;;;;2.00;0.93;;;8.40;99.90;;;;;;5015205;28;20069;-87
2021/03/19 06:01:42;;;;;;;2.38;0.75;;;8.40;99.90;;;;;;5015006;28;20063;-88
2021/03/19 06:04:17;;;;;;;2.05;0.80;;;8.40;99.90;;;;;;5009915;28;20438;-89
2021/03/19 06:06:52;;;;;;;2.38;0.80;;;8.30;99.90;;;;;;4995511;28;20050;-88
2021/03/19 06:09:31;;;;;;;2.10;1.08;;;8.40;99.90;;;;;;4995331;28;20063;-89
2021/03/19 06:12:01;;;;;;;1.38;0.60;;;8.40;99.90;;;;;;4995851;28;20062;-88
2021/03/19 06:14:28;;;;;;;2.53;0.95;;;8.40;99.90;;;;;;4995577;28;20065;-88
2021/03/19 06:16:59;;;;;;;2.28;0.88;;;8.30;99.90;;;;;;4995208;28;20056;-88
2021/03/19 06:19:29;;;;;;;2.00;0.73;;;8.30;99.90;;;;;;4994868;28;20089;-89
2021/03/19 06:22:16;;;;;;;1.85;0.70;;;8.30;99.90;;;;;;4995281;28;20055;-88
2021/03/19 06:24:43;;;;;;;5.03;1.13;;;8.30;99.90;;;;;;4995126;28;20054;-88
2021/03/19 06:27:17;;;;;;;4.40;1.10;;;8.30;99.90;;;;;;4994999;28;20050;-89
2021/03/19 06:29:45;;;;;;;1.60;1.00;;;8.30;99.90;;;;;;4995423;28;20051;-88
2021/03/19 06:32:23;;;;;;;2.67;0.80;;;8.30;99.90;;;;;;4995502;28;20046;-90
2021/03/19 06:34:55;;;;;;;1.80;1.13;;;8.30;99.90;;;;;;4995089;28;20061;-88
2021/03/19 06:37:31;;;;;;;3.00;0.75;;;8.30;99.90;;;;;;4995003;28;20061;-89
2021/03/19 06:39:58;;;;;;;3.25;1.45;;;8.30;99.90;;;;;;4995208;28;20133;-89
2021/03/19 06:42:40;;;;;;;2.17;0.75;;;8.30;99.90;;;;;;4994867;28;20058;-89
2021/03/19 06:45:18;;;;;;;2.13;1.02;;;8.30;99.90;;;;;;4994652;28;20116;-87
2021/03/19 06:47:46;;;;;;;2.38;1.15;;;8.30;99.90;;;;;;4994887;28;20108;-89
2021/03/19 06:50:13;;;;;;;2.15;0.80;;;8.30;99.90;;;;;;4994886;28;20057;-89
2021/03/19 06:52:40;;;;;;;5.68;1.38;;;8.30;99.90;;;;;;4995186;28;20061;-88
2021/03/19 06:55:11;;;;;;;3.05;1.08;;;8.40;99.90;;;;;;4994955;28;20061;-89
2021/03/19 06:57:45;;;;;;;2.45;1.00;;;8.30;99.90;;;;;;4995127;28;20051;-89
2021/03/19 07:00:13;;;;;;;2.70;1.70;;;8.30;99.90;;;;;;4994809;28;20378;-89
2021/03/19 07:03:05;;;;;;;3.58;0.68;;;8.30;99.90;;;;;;4996158;28;20125;-89
2021/03/19 07:05:51;;;;;;;1.58;1.15;;;8.30;99.90;;;;;;4995509;28;20049;-89
2021/03/19 07:08:23;;;;;;;2.83;0.88;;;8.30;99.90;;;;;;4998897;28;20058;-90
2021/03/19 07:10:57;;;;;;;3.38;1.15;;;8.30;99.90;;;;;;4998259;28;20108;-90
2021/03/19 07:13:55;;;;;;;1.23;0.52;;;8.30;99.90;;;;;;4998521;28;20043;-89
2021/03/19 07:16:23;;;;;;;2.88;1.25;;;8.30;99.90;;;;;;4938756;29;20056;-88
2021/03/19 07:19:16;;;;;;;1.88;1.00;;;8.30;99.90;;;;;;4938409;29;20061;-88
2021/03/19 07:22:02;;;;;;;4.93;0.90;;;8.30;99.90;;;;;;4938543;29;20060;-89
2021/03/19 07:25:02;;;;;;;2.58;0.70;;;8.30;99.90;;;;;;4938518;29;20055;-88
2021/03/19 07:27:47;;;;;;;2.15;0.93;;;8.30;99.90;;;;;;4938268;29;20051;-88
2021/03/19 07:30:22;;;;;;;1.67;0.55;;;8.30;99.90;;;;;;4938294;29;20134;-89
2021/03/19 07:33:15;;;;;;;1.67;0.83;;;8.30;99.90;;;;;;4938332;29;20055;-90
2021/03/19 07:35:52;;;;;;;1.70;0.82;;;8.40;99.90;;;;;;4937349;29;20065;-89
2021/03/19 07:38:42;;;;;;;8.43;1.70;;;8.30;99.90;;;;;;4938274;29;20063;-89
2021/03/19 07:41:16;;;;;;;1.60;0.60;;;8.40;99.90;;;;;;4937818;29;20138;-89
2021/03/19 07:44:20;;;;;;;1.70;0.68;;;8.40;99.90;;;;;;4938262;29;20059;-89
2021/03/19 07:46:52;;;;;;;2.97;1.13;;;8.40;99.90;;;;;;4900191;29;20060;-89
2021/03/19 07:49:45;;;;;;;0.98;0.63;;;8.40;99.90;;;;;;4900071;29;20107;-89
2021/03/19 07:52:21;;;;;;;1.02;0.40;;;8.40;99.90;;;;;;4931684;29;20051;-89
2021/03/19 07:54:49;;;;;;;1.88;0.50;;;8.40;99.90;;;;;;4957094;29;20510;-90
2021/03/19 07:57:20;;;;;;;1.65;0.45;;;8.40;99.90;;;;;;4956782;29;20065;-89
2021/03/19 07:59:49;;;;;;;0.45;0.20;;;8.40;99.90;;;;;;4955654;29;20154;-89
2021/03/19 08:02:54;;;;;;;0.98;0.30;;;8.40;99.90;;;;;;4956569;29;20051;-89
2021/03/19 08:05:24;;;;;;;0.70;0.32;;;8.40;99.90;;;;;;4956904;29;20227;-89
2021/03/19 08:07:58;;;;;;;0.88;0.35;;;8.50;99.90;;;;;;4957386;29;20416;-89
2021/03/19 08:10:27;;;;;;;3.40;0.30;;;8.50;99.90;;;;;;4956899;29;20058;-89
2021/03/19 08:12:57;;;;;;;0.85;0.22;;;8.50;99.90;;;;;;4956771;29;20048;-89
2021/03/19 08:15:27;;;;;;;3.05;0.45;;;8.50;99.90;;;;;;4955865;28;20065;-90
2021/03/19 08:17:59;;;;;;;1.13;0.40;;;8.60;99.90;;;;;;4956688;29;20477;-88
2021/03/19 08:20:38;;;;;;;0.13;0.10;;;8.60;99.90;;;;;;4969944;28;20455;-89
2021/03/19 08:23:10;;;;;;;0.88;0.30;;;8.60;99.90;;;;;;4996796;28;20486;-88
2021/03/19 08:25:39;;;;;;;0.20;0.20;;;8.60;99.90;;;;;;4996396;28;20529;-89
2021/03/19 08:28:10;;;;;;;1.05;0.45;;;8.60;99.90;;;;;;4995970;28;20057;-89
2021/03/19 08:30:43;;;;;;;0.88;0.45;;;8.60;99.90;;;;;;4996391;28;20047;-89
2021/03/19 08:33:16;;;;;;;1.98;0.65;;;8.60;99.90;;;;;;4996899;28;20050;-89
2021/03/19 08:35:45;;;;;;;1.02;0.75;;;8.70;99.90;;;;;;4996495;28;20057;-90
2021/03/19 08:38:16;;;;;;;0.90;0.60;;;8.70;99.90;;;;;;4996367;28;20050;-89
2021/03/19 08:40:46;;;;;;;5.55;0.47;;;8.70;99.90;;;;;;4996701;28;20477;-89
2021/03/19 08:43:17;;;;;;;3.00;1.10;;;8.70;99.90;;;;;;4996116;28;20068;-89
2021/03/19 08:45:43;;;;;;;2.60;0.88;;;8.70;99.90;;;;;;4996332;28;20451;-89
2021/03/19 08:48:14;;;;;;;3.13;0.90;;;8.70;99.90;;;;;;4996566;28;20056;-89
2021/03/19 08:50:41;;;;;;;0.93;0.35;;;8.70;99.90;;;;;;4996547;28;20104;-89
2021/03/19 08:53:12;;;;;;;0.68;0.20;;;8.70;99.90;;;;;;4996150;28;20043;-89
2021/03/19 08:55:39;;;;;;;0.30;0.13;;;8.70;99.90;;;;;;4996271;28;20173;-89
2021/03/19 08:58:49;;;;;;;0.30;0.15;;;8.70;99.90;;;;;;4996194;28;20062;-90
2021/03/19 09:01:47;;;;;;;0.40;0.10;;;8.80;99.90;;;;;;4996093;28;20058;-89
2021/03/19 09:04:15;;;;;;;0.60;0.40;;;8.90;99.90;;;;;;4984633;28;20137;-88
2021/03/19 09:07:24;;;;;;;0.65;0.57;;;9.00;99.90;;;;;;4996193;28;20046;-89
2021/03/19 09:09:50;;;;;;;2.47;0.50;;;9.00;99.90;;;;;;4995951;28;20054;-89
2021/03/19 09:12:22;;;;;;;0.82;0.50;;;9.00;99.90;;;;;;4996070;28;20053;-89
2021/03/19 09:14:52;;;;;;;2.05;0.35;;;8.90;99.90;;;;;;4995767;28;20115;-90
2021/03/19 09:17:56;;;;;;;2.83;0.32;;;9.00;99.90;;;;;;4995615;28;20064;-90
2021/03/19 09:21:01;;;;;;;1.92;0.63;;;9.20;99.90;;;;;;4995662;28;20060;-89
2021/03/19 09:23:31;;;;;;;0.98;0.40;;;9.40;99.90;;;;;;4987047;28;20092;-90
2021/03/19 09:26:19;;;;;;;0.80;0.50;;;9.40;99.90;;;;;;4995474;28;20057;-89
2021/03/19 09:29:00;;;;;;;1.25;0.60;;;9.40;99.90;;;;;;4995791;28;20144;-90
2021/03/19 09:31:51;;;;;;;0.47;0.43;;;9.50;99.90;;;;;;4995732;28;20383;-90
2021/03/19 09:34:22;;;;;;;1.67;0.60;;;9.50;99.90;;;;;;4990195;28;20050;-89
2021/03/19 09:37:38;;;;;;;0.50;0.38;;;9.50;99.90;;;;;;4995352;28;20047;-90
2021/03/19 09:40:14;;;;;;;0.67;0.30;;;9.60;99.90;;;;;;4995218;28;20534;-89
2021/03/19 09:42:52;;;;;;;0.30;0.10;;;9.70;99.90;;;;;;4993309;28;20419;-89
2021/03/19 09:45:27;;;;;;;0.57;0.25;;;9.70;99.90;;;;;;4995230;28;20058;-89
2021/03/19 09:48:00;;;;;;;2.00;0.40;;;9.70;99.90;;;;;;4995450;28;20046;-89
2021/03/19 09:50:28;;;;;;;0.35;0.20;;;9.80;99.90;;;;;;4995270;28;20061;-89
2021/03/19 09:52:55;;;;;;;0.13;0.13;;;9.80;99.90;;;;;;4995581;28;20046;-88
2021/03/19 09:55:24;;;;;;;0.82;0.20;;;9.70;99.90;;;;;;4995236;28;20050;-89
2021/03/19 09:57:51;;;;;;;0.35;0.20;;;9.80;99.90;;;;;;4995072;28;20053;-89
2021/03/19 10:00:20;;;;;;;0.35;0.20;;;9.80;99.90;;;;;;4994512;28;20050;-89
2021/03/19 10:02:46;;;;;;;0.68;0.43;;;9.80;99.90;;;;;;4995028;28;20064;-89
2021/03/19 10:05:14;;;;;;;0.70;0.20;;;9.90;99.90;;;;;;4994777;28;20054;-89
2021/03/19 10:07:45;;;;;;;0.43;0.30;;;10.00;99.90;;;;;;4994552;28;20049;-89
2021/03/19 10:10:22;;;;;;;0.93;0.20;;;10.10;99.90;;;;;;4991919;28;20060;-88
2021/03/19 10:12:49;;;;;;;0.52;0.10;;;10.10;99.90;;;;;;4994700;28;20066;-88
2021/03/19 10:15:17;;;;;;;0.88;0.63;;;10.10;99.90;;;;;;4994543;28;20054;-89
2021/03/19 10:17:48;;;;;;;0.20;0.10;;;10.00;99.90;;;;;;4994930;28;20089;-89
2021/03/19 10:20:17;;;;;;;0.10;0.10;;;10.10;99.90;;;;;;4995117;28;20383;-89
2021/03/19 10:22:45;;;;;;;0.75;0.20;;;10.20;99.90;;;;;;4995117;28;20410;-88
2021/03/19 10:25:29;;;;;;;0.10;0.10;;;10.10;99.90;;;;;;4994805;28;20050;-89
2021/03/19 10:27:56;;;;;;;0.45;0.10;;;10.10;99.90;;;;;;4993727;28;20471;-89
2021/03/19 10:30:25;;;;;;;2.63;1.10;;;10.10;99.90;;;;;;4995244;28;20046;-89
2021/03/19 10:32:52;;;;;;;0.57;0.30;;;10.20;99.90;;;;;;4995110;28;20100;-88
2021/03/19 10:35:30;;;;;;;0.47;0.20;;;10.10;99.90;;;;;;4994092;28;20050;-90
2021/03/19 10:37:58;;;;;;;1.60;0.10;;;10.10;99.90;;;;;;4996272;28;20058;-89
2021/03/19 10:40:34;;;;;;;1.63;0.20;;;10.00;99.90;;;;;;4998906;28;20106;-89
2021/03/19 10:43:09;;;;;;;0.98;0.10;;;10.00;99.90;;;;;;4998038;28;20058;-89
2021/03/19 10:45:38;;;;;;;4.65;0.20;;;10.00;99.90;;;;;;4998652;28;20085;-89
2021/03/19 10:48:12;;;;;;;1.20;0.30;;;10.00;99.90;;;;;;4998633;28;20061;-89
2021/03/19 10:50:42;;;;;;;0.43;0.20;;;9.90;99.90;;;;;;4998429;28;20054;-89
2021/03/19 10:53:12;;;;;;;0.35;0.32;;;9.90;99.90;;;;;;4998767;28;20054;-89
2021/03/19 10:55:47;;;;;;;0.85;0.30;;;9.90;99.90;;;;;;4998366;28;20057;-89
2021/03/19 10:58:32;;;;;;;0.50;0.20;;;9.90;99.90;;;;;;4998160;28;20097;-89
2021/03/19 11:00:59;;;;;;;1.73;0.10;;;9.90;99.90;;;;;;4998236;28;20141;-89
2021/03/19 11:03:34;;;;;;;1.33;0.20;;;10.00;99.90;;;;;;4998610;28;20050;-89
2021/03/19 11:06:02;;;;;;;1.20;0.20;;;9.90;99.90;;;;;;4998245;28;20054;-89
2021/03/19 11:08:29;;;;;;;3.38;0.63;;;10.00;99.90;;;;;;4998035;28;20065;-89
2021/03/19 11:10:56;;;;;;;1.05;0.30;;;10.00;99.90;;;;;;4998617;28;20064;-89
2021/03/19 11:13:25;;;;;;;0.88;0.30;;;10.10;99.90;;;;;;4998160;28;20050;-92
2021/03/19 11:15:53;;;;;;;1.63;0.20;;;10.10;99.90;;;;;;4998203;28;20043;-92
2021/03/19 11:18:20;;;;;;;1.08;0.57;;;10.20;99.90;;;;;;4998506;28;20050;-86
2021/03/19 11:20:49;;;;;;;1.33;0.15;;;10.20;99.90;;;;;;5001119;28;20145;-92
2021/03/19 11:23:35;;;;;;;0.65;0.32;;;10.20;99.90;;;;;;5007773;28;20046;-91
2021/03/19 11:26:14;;;;;;;1.23;0.40;;;10.30;99.90;;;;;;5005799;28;20052;-94
2021/03/19 11:28:42;;;;;;;1.83;0.60;;;10.40;99.90;;;;;;5008650;28;20106;-86
2021/03/19 11:31:14;;;;;;;0.55;0.30;;;10.40;99.90;;;;;;5003520;28;20054;-85
2021/03/19 11:33:58;;;;;;;0.90;0.30;;;10.50;99.90;;;;;;4998300;28;20047;-92
2021/03/19 11:36:25;;;;;;;0.17;0.17;;;10.60;99.90;;;;;;4998142;28;20046;-85
2021/03/19 11:38:52;;;;;;;1.77;0.30;;;10.60;99.90;;;;;;4997948;28;20459;-90
2021/03/19 11:41:38;;;;;;;1.48;0.30;;;10.80;99.90;;;;;;4996226;28;20054;-92
2021/03/19 11:44:04;;;;;;;1.33;0.38;;;10.90;99.90;;;;;;4998232;28;20069;-92
2021/03/19 11:46:31;;;;;;;1.23;0.40;;;10.90;99.90;;;;;;4997642;28;20046;-92
2021/03/19 11:48:57;;;;;;;1.58;0.45;;;10.90;99.90;;;;;;4999090;28;20054;-92
2021/03/19 11:51:30;;;;;;;0.30;0.30;;;10.90;99.90;;;;;;5017199;28;20076;-90
2021/03/19 11:53:56;;;;;;;1.45;0.50;;;10.80;99.90;;;;;;5017498;28;20463;-88
2021/03/19 11:56:23;;;;;;;0.93;0.35;;;10.80;99.90;;;;;;5017506;28;20056;-92
2021/03/19 11:58:51;;;;;;;0.45;0.35;;;10.90;99.90;;;;;;5017157;28;20378;-88
2021/03/19 12:01:17;;;;;;;1.38;0.20;;;10.90;99.90;;;;;;5016558;28;20378;-87
2021/03/19 12:03:45;;;;;;;0.60;0.30;;;10.90;99.90;;;;;;5016582;28;20213;-87
2021/03/19 12:06:12;;;;;;;2.15;0.30;;;10.90;99.90;;;;;;5016803;28;20352;-87
2021/03/19 12:08:40;;;;;;;3.33;0.43;;;11.00;99.90;;;;;;5016553;28;20479;-87
2021/03/19 12:11:06;;;;;;;1.35;0.30;;;11.00;99.90;;;;;;5016385;28;20054;-87
2021/03/19 12:13:33;;;;;;;9.60;1.70;;;10.90;99.90;;;;;;5016356;28;20050;-87
2021/03/19 12:16:00;;;;;;;0.82;0.40;;;10.90;99.90;;;;;;5016377;28;20394;-87
2021/03/19 12:18:27;;;;;;;0.82;0.50;;;10.80;99.90;;;;;;5016326;28;20064;-87
2021/03/19 12:20:54;;;;;;;1.60;0.45;;;10.80;99.90;;;;;;5016107;28;20141;-87
2021/03/19 12:23:21;;;;;;;0.60;0.20;;;10.80;99.90;;;;;;5016478;28;20064;-87
2021/03/19 12:25:47;;;;;;;1.00;0.43;;;10.80;99.90;;;;;;5016166;28;20056;-87
2021/03/19 12:28:18;;;;;;;0.50;0.30;;;10.80;99.90;;;;;;5016435;28;20064;-87
2021/03/19 12:30:45;;;;;;;0.43;0.30;;;10.80;99.90;;;;;;5016236;28;20050;-87
2021/03/19 12:33:12;;;;;;;0.35;0.15;;;10.70;99.90;;;;;;5016068;28;20513;-87
2021/03/19 12:35:41;;;;;;;1.95;0.38;;;10.70;99.90;;;;;;5016283;28;20064;-88
2021/03/19 12:38:08;;;;;;;0.63;0.30;;;10.60;99.90;;;;;;5016007;28;20058;-87
2021/03/19 12:40:34;;;;;;;0.85;0.57;;;10.60;99.90;;;;;;5015956;28;20045;-87
2021/03/19 12:43:01;;;;;;;0.47;0.30;;;10.60;99.90;;;;;;5015785;28;20061;-87
2021/03/19 12:45:29;;;;;;;0.70;0.40;;;10.60;99.90;;;;;;5016034;28;20050;-87
2021/03/19 12:47:55;;;;;;;2.05;0.30;;;10.60;99.90;;;;;;5015879;28;20060;-87
2021/03/19 12:50:25;;;;;;;0.98;0.40;;;10.60;99.90;;;;;;5015407;28;20046;-87
2021/03/19 12:52:52;;;;;;;1.13;0.63;;;10.70;99.90;;;;;;5015806;28;20058;-87
2021/03/19 12:55:19;;;;;;;0.82;0.45;;;10.70;99.90;;;;;;5015743;28;20058;-85
2021/03/19 12:57:45;;;;;;;0.70;0.40;;;10.70;99.90;;;;;;5015765;28;20482;-87
2021/03/19 13:00:16;;;;;;;0.95;0.50;;;10.70;99.90;;;;;;5015204;28;20050;-86
2021/03/19 13:02:43;;;;;;;2.28;0.40;;;10.70;99.90;;;;;;5015867;28;20064;-88
2021/03/19 13:05:11;;;;;;;0.70;0.35;;;10.70;99.90;;;;;;5015664;28;20115;-87
2021/03/19 13:07:38;;;;;;;1.05;0.52;;;10.70;99.90;;;;;;5015439;28;20046;-87
2021/03/19 13:10:06;;;;;;;0.70;0.55;;;10.80;99.90;;;;;;5015387;28;20529;-86
2021/03/19 13:12:33;;;;;;;1.15;0.60;;;10.80;99.90;;;;;;5003170;28;20467;-86
2021/03/19 13:14:59;;;;;;;1.25;0.57;;;10.80;99.90;;;;;;4995364;28;20054;-87
2021/03/19 13:17:27;;;;;;;1.13;0.43;;;10.80;99.90;;;;;;4995635;28;20046;-87
2021/03/19 13:19:54;;;;;;;0.85;0.32;;;10.80;99.90;;;;;;5005173;28;20068;-87
2021/03/19 13:22:20;;;;;;;2.47;0.40;;;10.80;99.90;;;;;;5014749;28;20059;-86